Time;durP1;ratioP1;P1;durP2;ratioP2;P2;SDS_P1;SDS_P2;PMS_P1;PMS_P2;Temp;Humidity;BMP_temperature;BMP_pressure;BME280_temperature;BME280_humidity;BME280_pressure;Samples;Min_cycle;Max_cycle;Signal;HPM_P1;HPM_P2
2023/12/12 05:06:27;;;;;;;0.30;0.30;;;8.30;99.90;;;;;;5344911;23;20288;-67
2023/12/12 05:08:53;;;;;;;0.30;0.30;;;8.30;99.90;;;;;;4919222;29;20209;-64
2023/12/12 05:11:18;;;;;;;0.30;0.30;;;8.40;99.90;;;;;;4936346;29;20178;-64
2023/12/12 05:13:44;;;;;;;0.30;0.30;;;8.40;99.90;;;;;;4919315;29;20272;-66
2023/12/12 05:16:10;;;;;;;0.30;0.30;;;8.30;99.90;;;;;;4907547;29;20253;-68
2023/12/12 05:18:36;;;;;;;0.30;0.30;;;8.30;99.90;;;;;;4917506;29;20185;-66
2023/12/12 05:21:02;;;;;;;0.33;0.33;;;8.30;99.90;;;;;;4916941;29;20181;-64
2023/12/12 05:23:27;;;;;;;0.30;0.30;;;8.20;99.90;;;;;;4917859;29;20256;-65
2023/12/12 05:25:53;;;;;;;0.30;0.30;;;8.20;99.90;;;;;;4917305;29;20453;-68
2023/12/12 05:28:20;;;;;;;0.30;0.30;;;8.20;99.90;;;;;;4917517;29;20249;-64
2023/12/12 05:30:45;;;;;;;0.30;0.30;;;8.20;99.90;;;;;;4916940;29;20588;-68
2023/12/12 05:33:12;;;;;;;0.30;0.30;;;8.20;99.90;;;;;;4917381;29;20228;-67
2023/12/12 05:35:38;;;;;;;0.30;0.30;;;8.10;99.90;;;;;;4915610;29;20212;-66
2023/12/12 05:38:04;;;;;;;0.30;0.30;;;8.10;99.90;;;;;;4917367;29;20174;-67
2023/12/12 05:40:30;;;;;;;0.30;0.30;;;8.10;99.90;;;;;;4917208;29;21018;-66
2023/12/12 05:42:56;;;;;;;0.30;0.30;;;8.10;99.90;;;;;;4900199;29;20209;-66
2023/12/12 05:45:22;;;;;;;0.30;0.30;;;8.20;99.90;;;;;;4916741;29;20261;-67
2023/12/12 05:47:48;;;;;;;0.30;0.30;;;8.20;99.90;;;;;;4917626;29;20700;-66
2023/12/12 05:50:14;;;;;;;0.30;0.30;;;8.20;99.90;;;;;;4916971;29;20201;-66
2023/12/12 05:52:39;;;;;;;0.30;0.30;;;8.20;99.90;;;;;;4917111;29;20185;-67
2023/12/12 05:55:05;;;;;;;0.47;0.47;;;8.20;99.90;;;;;;4916675;29;20205;-66
2023/12/12 05:57:33;;;;;;;0.30;0.30;;;8.20;99.90;;;;;;4916908;29;20178;-67
2023/12/12 05:59:59;;;;;;;0.30;0.30;;;8.20;99.90;;;;;;4899972;29;20188;-65
2023/12/12 06:02:25;;;;;;;0.30;0.30;;;8.20;99.90;;;;;;4916927;29;20174;-67
2023/12/12 06:04:51;;;;;;;0.30;0.30;;;8.20;99.90;;;;;;4916536;29;20510;-65
2023/12/12 06:07:17;;;;;;;0.30;0.30;;;8.30;99.90;;;;;;4899698;29;20190;-66
2023/12/12 06:09:44;;;;;;;0.40;0.40;;;8.30;99.90;;;;;;4916748;29;20565;-68
2023/12/12 06:12:09;;;;;;;0.32;0.32;;;8.30;99.90;;;;;;4916844;29;20190;-66
2023/12/12 06:14:35;;;;;;;0.40;0.40;;;8.30;99.90;;;;;;4920176;29;20181;-65
2023/12/12 06:17:02;;;;;;;0.30;0.30;;;8.30;99.90;;;;;;4916713;29;20194;-65
2023/12/12 06:19:28;;;;;;;0.40;0.40;;;8.30;99.90;;;;;;4907777;29;20177;-68
2023/12/12 06:21:54;;;;;;;0.70;0.47;;;8.30;99.90;;;;;;4935537;29;20180;-65
2023/12/12 06:24:20;;;;;;;0.30;0.30;;;8.30;99.90;;;;;;4933278;29;20216;-69
2023/12/12 06:26:46;;;;;;;0.32;0.32;;;8.30;99.90;;;;;;4916600;29;20194;-65
2023/12/12 06:29:13;;;;;;;0.30;0.30;;;8.30;99.90;;;;;;4916506;29;20198;-67
2023/12/12 06:31:39;;;;;;;0.35;0.35;;;8.30;99.90;;;;;;4924598;29;20413;-64
2023/12/12 06:34:05;;;;;;;0.30;0.30;;;8.30;99.90;;;;;;4918000;29;20178;-69
2023/12/12 06:36:31;;;;;;;0.30;0.30;;;8.30;99.90;;;;;;4917539;29;20202;-66
2023/12/12 06:38:57;;;;;;;0.30;0.20;;;8.30;99.90;;;;;;4924096;29;20195;-64
2023/12/12 06:41:22;;;;;;;0.40;0.40;;;8.30;99.90;;;;;;4927843;29;20217;-66
2023/12/12 06:43:48;;;;;;;0.33;0.33;;;8.20;99.90;;;;;;4916729;29;20651;-67
2023/12/12 06:46:18;;;;;;;0.40;0.40;;;8.20;99.90;;;;;;4901694;29;20209;-66
2023/12/12 06:48:43;;;;;;;0.40;0.40;;;8.20;99.90;;;;;;4902928;29;20182;-67
2023/12/12 06:51:11;;;;;;;0.30;0.30;;;8.20;99.90;;;;;;4919985;29;20569;-69
2023/12/12 06:53:37;;;;;;;0.30;0.30;;;8.20;99.90;;;;;;4919154;29;20183;-65
2023/12/12 06:56:03;;;;;;;0.30;0.30;;;8.20;99.90;;;;;;4920404;29;20209;-67
2023/12/12 06:58:29;;;;;;;0.30;0.30;;;8.20;99.90;;;;;;4927589;29;20433;-65
2023/12/12 07:00:55;;;;;;;0.30;0.30;;;8.10;99.90;;;;;;4921212;29;20174;-68
2023/12/12 07:03:21;;;;;;;0.30;0.30;;;8.20;99.90;;;;;;4925409;29;20180;-66
2023/12/12 07:05:51;;;;;;;0.30;0.30;;;8.20;99.90;;;;;;4931530;29;20628;-67
2023/12/12 07:08:18;;;;;;;0.30;0.30;;;8.20;99.90;;;;;;4933125;29;20655;-65
2023/12/12 07:10:45;;;;;;;0.30;0.30;;;8.20;99.90;;;;;;4904199;29;20233;-68
2023/12/12 07:13:10;;;;;;;0.40;0.40;;;8.20;99.90;;;;;;4931906;29;20175;-65
2023/12/12 07:15:36;;;;;;;0.30;0.30;;;8.20;99.90;;;;;;4931652;29;20232;-66
2023/12/12 07:18:02;;;;;;;0.30;0.30;;;8.20;99.90;;;;;;4936668;29;20520;-67
2023/12/12 07:20:27;;;;;;;0.30;0.30;;;8.20;99.90;;;;;;4921979;29;20189;-68
2023/12/12 07:22:53;;;;;;;0.30;0.30;;;8.20;99.90;;;;;;4934503;29;20181;-66
2023/12/12 07:25:20;;;;;;;0.37;0.37;;;8.20;99.90;;;;;;4921977;29;20214;-66
2023/12/12 07:27:46;;;;;;;0.30;0.30;;;8.20;99.90;;;;;;4926757;29;20253;-69
2023/12/12 07:30:12;;;;;;;0.30;0.30;;;8.20;99.90;;;;;;4938055;29;20672;-68
2023/12/12 07:32:39;;;;;;;0.30;0.30;;;8.20;99.90;;;;;;4933408;29;20174;-68
2023/12/12 07:35:06;;;;;;;0.30;0.30;;;8.20;99.90;;;;;;4928726;29;20204;-67
2023/12/12 07:37:31;;;;;;;0.30;0.20;;;8.30;99.90;;;;;;4901843;29;20652;-66
2023/12/12 07:39:57;;;;;;;0.40;0.40;;;8.20;99.90;;;;;;4918842;29;20193;-69
2023/12/12 07:42:22;;;;;;;0.40;0.40;;;8.20;99.90;;;;;;4919044;29;20495;-68
2023/12/12 07:44:49;;;;;;;0.30;0.30;;;8.30;99.90;;;;;;4901397;29;20182;-72
2023/12/12 07:47:14;;;;;;;0.40;0.40;;;8.30;99.90;;;;;;4905947;29;20196;-69
2023/12/12 07:49:41;;;;;;;0.30;0.30;;;8.30;99.90;;;;;;4928237;29;20550;-68
2023/12/12 07:52:06;;;;;;;0.30;0.30;;;8.30;99.90;;;;;;4919714;29;20584;-68
2023/12/12 07:54:32;;;;;;;0.30;0.30;;;8.30;99.90;;;;;;4925448;29;20177;-65
2023/12/12 07:56:57;;;;;;;0.20;0.20;;;8.30;99.90;;;;;;4937378;29;20247;-67
2023/12/12 07:59:23;;;;;;;0.30;0.30;;;8.30;99.90;;;;;;4914458;29;20269;-67
2023/12/12 08:01:49;;;;;;;0.30;0.30;;;8.40;99.90;;;;;;4931185;29;20178;-68
2023/12/12 08:04:14;;;;;;;0.30;0.30;;;8.40;99.90;;;;;;4933053;29;20178;-69
2023/12/12 08:06:40;;;;;;;0.30;0.30;;;8.40;99.90;;;;;;4901247;29;20213;-68
2023/12/12 08:09:07;;;;;;;0.30;0.30;;;8.40;99.90;;;;;;4922916;29;20564;-69
2023/12/12 08:11:32;;;;;;;0.30;0.30;;;8.40;99.90;;;;;;4927004;29;20170;-69
2023/12/12 08:13:59;;;;;;;0.30;0.30;;;8.40;99.90;;;;;;4935617;29;20177;-67
2023/12/12 08:16:26;;;;;;;0.30;0.30;;;8.40;99.90;;;;;;4918653;29;20576;-67
2023/12/12 08:18:52;;;;;;;0.30;0.20;;;8.40;99.90;;;;;;4920056;29;20214;-67
2023/12/12 08:21:18;;;;;;;0.30;0.30;;;8.40;99.90;;;;;;4920189;29;20674;-66
2023/12/12 08:23:44;;;;;;;0.30;0.30;;;8.50;99.90;;;;;;4919466;29;20201;-67
2023/12/12 08:26:10;;;;;;;0.30;0.30;;;8.50;99.90;;;;;;4929804;29;20676;-68
2023/12/12 08:28:36;;;;;;;0.30;0.30;;;8.60;99.90;;;;;;4937195;29;20528;-69
2023/12/12 08:31:02;;;;;;;0.50;0.50;;;8.60;99.90;;;;;;4929550;29;20256;-68
2023/12/12 08:33:27;;;;;;;0.30;0.30;;;8.70;99.90;;;;;;4936688;29;20562;-69
2023/12/12 08:35:53;;;;;;;0.30;0.30;;;8.70;99.90;;;;;;4903809;29;20293;-69
2023/12/12 08:38:19;;;;;;;0.30;0.20;;;8.80;99.90;;;;;;4932695;29;20643;-66
2023/12/12 08:40:44;;;;;;;0.30;0.30;;;8.80;99.90;;;;;;4934256;29;20571;-67
2023/12/12 08:43:10;;;;;;;0.30;0.30;;;8.80;99.90;;;;;;4917821;29;20174;-68
2023/12/12 08:45:35;;;;;;;0.30;0.30;;;8.80;99.90;;;;;;4918086;29;20209;-67
2023/12/12 08:48:03;;;;;;;0.50;0.50;;;8.80;99.90;;;;;;4900923;29;20177;-67
2023/12/12 08:50:29;;;;;;;0.50;0.50;;;8.90;99.90;;;;;;4925838;29;20201;-67
2023/12/12 08:52:55;;;;;;;0.30;0.30;;;8.90;99.90;;;;;;4936895;29;20752;-67
2023/12/12 08:55:20;;;;;;;0.30;0.30;;;8.80;99.90;;;;;;4929413;29;20935;-66
2023/12/12 08:57:47;;;;;;;0.47;0.47;;;8.70;99.90;;;;;;4926135;29;20177;-66
2023/12/12 09:00:13;;;;;;;0.30;0.30;;;8.70;99.90;;;;;;4930530;29;20183;-70
2023/12/12 09:02:39;;;;;;;0.30;0.20;;;8.70;99.90;;;;;;4936326;29;20268;-68
2023/12/12 09:05:06;;;;;;;0.30;0.30;;;8.80;99.90;;;;;;4935740;29;20810;-68
2023/12/12 09:07:33;;;;;;;0.30;0.20;;;8.90;99.90;;;;;;4917561;29;20209;-66
2023/12/12 09:09:59;;;;;;;0.30;0.30;;;8.90;99.90;;;;;;4916554;29;20241;-69
2023/12/12 09:12:25;;;;;;;0.30;0.30;;;8.90;99.90;;;;;;4917532;29;20177;-70
2023/12/12 09:14:50;;;;;;;0.30;0.30;;;9.00;99.90;;;;;;4917177;29;20166;-67
2023/12/12 09:17:16;;;;;;;0.40;0.40;;;9.10;99.90;;;;;;4917382;29;20226;-69
2023/12/12 09:19:42;;;;;;;0.30;0.30;;;9.20;99.90;;;;;;4900333;29;20204;-69
2023/12/12 09:22:07;;;;;;;0.30;0.30;;;9.30;99.90;;;;;;4917373;29;20174;-67
2023/12/12 09:24:33;;;;;;;0.37;0.37;;;9.30;99.90;;;;;;4916966;29;20677;-68
2023/12/12 09:26:59;;;;;;;0.30;0.20;;;9.40;99.90;;;;;;4917192;29;20194;-66
2023/12/12 09:29:24;;;;;;;0.30;0.30;;;9.50;99.90;;;;;;4917071;29;20229;-65
2023/12/12 09:31:50;;;;;;;0.30;0.30;;;9.60;99.90;;;;;;4917208;29;20197;-67
2023/12/12 09:34:16;;;;;;;0.30;0.30;;;9.60;99.90;;;;;;4916721;29;20175;-72
2023/12/12 09:36:41;;;;;;;0.30;0.30;;;9.60;99.90;;;;;;4917283;29;20200;-70
2023/12/12 09:39:07;;;;;;;0.30;0.30;;;9.60;99.90;;;;;;4917055;29;20186;-68
2023/12/12 09:41:33;;;;;;;0.40;0.40;;;9.60;99.90;;;;;;4917290;29;20269;-69
2023/12/12 09:44:01;;;;;;;0.30;0.30;;;9.60;99.90;;;;;;4916777;29;20430;-68
2023/12/12 09:46:30;;;;;;;0.30;0.25;;;9.60;99.90;;;;;;4899929;29;20723;-65
2023/12/12 09:48:56;;;;;;;0.30;0.30;;;9.60;99.90;;;;;;4900059;29;20256;-68
2023/12/12 09:51:24;;;;;;;0.30;0.20;;;9.60;99.90;;;;;;4917059;29;20542;-69
2023/12/12 09:53:51;;;;;;;0.40;0.40;;;9.60;99.90;;;;;;4900028;29;20174;-67
2023/12/12 09:56:18;;;;;;;0.30;0.30;;;9.60;99.90;;;;;;4916596;29;20269;-68
2023/12/12 09:58:50;;;;;;;0.40;0.40;;;9.60;99.90;;;;;;4916937;29;20663;-66
2023/12/12 10:01:16;;;;;;;0.30;0.30;;;9.60;99.90;;;;;;4916877;29;20591;-68
2023/12/12 10:03:42;;;;;;;0.30;0.28;;;9.60;99.90;;;;;;4899974;29;20174;-65
2023/12/12 10:06:12;;;;;;;0.30;0.30;;;9.50;99.90;;;;;;4916403;29;20206;-69
2023/12/12 10:08:39;;;;;;;0.30;0.30;;;9.50;99.90;;;;;;4916776;29;20942;-69
2023/12/12 10:11:09;;;;;;;0.32;0.32;;;9.50;99.90;;;;;;4921730;29;20633;-66
2023/12/12 10:13:58;;;;;;;0.30;0.30;;;9.50;99.90;;;;;;4919881;29;20532;-70
2023/12/12 10:16:27;;;;;;;0.30;0.30;;;9.50;99.90;;;;;;4916857;29;20195;-67
2023/12/12 10:18:52;;;;;;;0.30;0.20;;;9.50;99.90;;;;;;4916794;29;20186;-64
2023/12/12 10:21:22;;;;;;;0.60;0.60;;;9.50;99.90;;;;;;4918318;29;20286;-63
2023/12/12 10:23:50;;;;;;;0.20;0.20;;;9.50;99.90;;;;;;4921486;29;20781;-66
2023/12/12 10:26:32;;;;;;;0.30;0.30;;;9.50;99.90;;;;;;4919861;29;20285;-65
2023/12/12 10:28:59;;;;;;;0.20;0.20;;;9.50;99.90;;;;;;4920157;29;20233;-65
2023/12/12 10:31:26;;;;;;;0.30;0.30;;;9.50;99.90;;;;;;4919942;29;20183;-65
2023/12/12 10:33:54;;;;;;;0.30;0.30;;;9.50;99.90;;;;;;4920290;29;20548;-65
2023/12/12 10:36:21;;;;;;;0.30;0.30;;;9.50;99.90;;;;;;4919967;29;20222;-65
2023/12/12 10:38:46;;;;;;;0.30;0.30;;;9.50;99.90;;;;;;4920141;29;20183;-64
2023/12/12 10:41:16;;;;;;;0.30;0.30;;;9.50;99.90;;;;;;4920032;29;20182;-64
2023/12/12 10:43:44;;;;;;;0.30;0.20;;;9.50;99.90;;;;;;4920286;29;20258;-64
2023/12/12 10:46:15;;;;;;;0.30;0.20;;;9.60;99.90;;;;;;4919648;29;20210;-65
2023/12/12 10:48:48;;;;;;;0.70;0.47;;;9.60;99.90;;;;;;4920072;29;20261;-64
2023/12/12 10:51:17;;;;;;;0.30;0.30;;;9.70;99.90;;;;;;4903171;29;20278;-65
2023/12/12 10:53:44;;;;;;;0.30;0.30;;;9.70;99.90;;;;;;4902821;29;20178;-63
2023/12/12 10:56:14;;;;;;;0.30;0.30;;;9.70;99.90;;;;;;4938209;29;20292;-64
2023/12/12 10:58:41;;;;;;;0.30;0.30;;;9.70;99.90;;;;;;4921650;29;20187;-65
2023/12/12 11:01:09;;;;;;;0.30;0.30;;;9.70;99.90;;;;;;4938884;29;20561;-64
2023/12/12 11:03:36;;;;;;;0.30;0.30;;;9.70;99.90;;;;;;4938929;29;20256;-64
2023/12/12 11:06:05;;;;;;;0.30;0.30;;;9.80;99.90;;;;;;4938156;29;20292;-65
2023/12/12 11:08:32;;;;;;;0.30;0.30;;;9.80;99.90;;;;;;4932165;29;20178;-64
2023/12/12 11:11:01;;;;;;;0.40;0.40;;;9.90;99.90;;;;;;4919588;29;20270;-64
2023/12/12 11:13:30;;;;;;;0.30;0.30;;;10.00;99.90;;;;;;4902516;29;20174;-65
2023/12/12 11:15:58;;;;;;;0.40;0.40;;;10.10;99.90;;;;;;4918984;29;20198;-65
2023/12/12 11:18:24;;;;;;;0.30;0.30;;;10.10;99.90;;;;;;4902073;29;20583;-64
2023/12/12 11:20:49;;;;;;;0.30;0.30;;;10.20;99.90;;;;;;4933688;29;20188;-64
2023/12/12 11:23:46;;;;;;;5.70;1.90;;;10.20;99.90;;;;;;4933043;29;20237;-68
2023/12/12 11:26:15;;;;;;;0.35;0.35;;;10.30;99.90;;;;;;4928098;29;20262;-66
2023/12/12 11:28:42;;;;;;;0.30;0.30;;;10.40;99.90;;;;;;4920965;29;20183;-67
2023/12/12 11:31:08;;;;;;;0.30;0.30;;;10.40;99.90;;;;;;4910025;29;20699;-66
2023/12/12 11:34:22;;;;;;;0.30;0.30;;;10.40;99.90;;;;;;4921760;29;20210;-67
2023/12/12 11:36:50;;;;;;;0.30;0.20;;;10.50;99.90;;;;;;4914875;29;20456;-67
2023/12/12 11:39:37;;;;;;;0.30;0.30;;;10.50;99.90;;;;;;4900470;29;20203;-69
2023/12/12 11:42:04;;;;;;;0.30;0.30;;;10.60;99.90;;;;;;4905005;29;20187;-67
2023/12/12 11:44:40;;;;;;;0.50;0.50;;;10.60;99.90;;;;;;4937417;29;20190;-68
2023/12/12 11:47:10;;;;;;;0.30;0.28;;;10.70;99.90;;;;;;4924786;29;20245;-67
2023/12/12 11:49:36;;;;;;;0.30;0.30;;;10.70;99.90;;;;;;4924133;29;20297;-68
2023/12/12 11:52:02;;;;;;;0.30;0.30;;;10.80;99.90;;;;;;4935059;29;20653;-70
2023/12/12 11:54:27;;;;;;;0.30;0.30;;;10.80;99.90;;;;;;4933149;29;20175;-67
2023/12/12 11:56:58;;;;;;;0.30;0.30;;;10.90;99.90;;;;;;4928560;29;20567;-68
2023/12/12 11:59:25;;;;;;;0.30;0.30;;;10.90;99.90;;;;;;4921189;29;20183;-68
2023/12/12 12:01:51;;;;;;;0.30;0.30;;;10.90;99.90;;;;;;4931266;29;20271;-67
2023/12/12 12:04:17;;;;;;;0.30;0.20;;;10.90;99.90;;;;;;4905587;29;20191;-67
2023/12/12 12:06:44;;;;;;;0.30;0.30;;;11.00;99.90;;;;;;4918467;29;20219;-68
2023/12/12 12:09:11;;;;;;;1.50;0.85;;;10.90;99.90;;;;;;4930914;29;20200;-67
2023/12/12 12:11:40;;;;;;;0.30;0.30;;;10.90;99.90;;;;;;4937298;29;20179;-66
2023/12/12 12:14:11;;;;;;;0.30;0.30;;;10.80;99.90;;;;;;4924397;29;20487;-68
2023/12/12 12:16:37;;;;;;;0.30;0.30;;;10.80;99.90;;;;;;4921084;29;20479;-65
2023/12/12 12:19:29;;;;;;;0.30;0.30;;;10.70;99.90;;;;;;4906594;29;20448;-66
2023/12/12 12:22:09;;;;;;;0.50;0.50;;;10.70;99.90;;;;;;4912953;29;20442;-67
2023/12/12 12:24:47;;;;;;;0.30;0.30;;;10.70;99.90;;;;;;4923178;29;20762;-67
2023/12/12 12:27:17;;;;;;;0.30;0.20;;;10.70;99.90;;;;;;4922169;29;20191;-67
2023/12/12 12:29:57;;;;;;;0.30;0.30;;;10.70;99.90;;;;;;4925797;29;20299;-68
2023/12/12 12:32:23;;;;;;;0.30;0.30;;;10.70;99.90;;;;;;4925625;29;20782;-68
2023/12/12 12:34:49;;;;;;;0.30;0.30;;;10.80;99.90;;;;;;4926905;29;20239;-67
2023/12/12 12:37:33;;;;;;;0.30;0.30;;;10.80;99.90;;;;;;4925453;29;20544;-67
2023/12/12 12:39:59;;;;;;;0.30;0.30;;;10.90;99.90;;;;;;4923044;29;20777;-67
2023/12/12 12:42:35;;;;;;;0.30;0.30;;;10.90;99.90;;;;;;4917104;29;20254;-68
2023/12/12 12:45:03;;;;;;;0.30;0.30;;;11.00;99.90;;;;;;4923451;29;20793;-67
2023/12/12 12:47:29;;;;;;;0.30;0.20;;;11.00;99.90;;;;;;4930146;29;20427;-67
2023/12/12 12:49:55;;;;;;;0.30;0.30;;;11.00;99.90;;;;;;4912984;29;20518;-67
2023/12/12 12:52:21;;;;;;;0.30;0.30;;;11.00;99.90;;;;;;4935572;29;20506;-68
2023/12/12 12:54:47;;;;;;;0.30;0.30;;;11.00;99.90;;;;;;4924289;29;20523;-69
2023/12/12 12:57:13;;;;;;;0.30;0.30;;;11.00;99.90;;;;;;4919579;29;20476;-67
2023/12/12 12:59:39;;;;;;;0.30;0.30;;;10.90;99.90;;;;;;4922752;29;20427;-66
2023/12/12 13:02:05;;;;;;;0.30;0.20;;;10.80;99.90;;;;;;4918417;29;20438;-68
2023/12/12 13:04:30;;;;;;;0.30;0.20;;;10.70;99.90;;;;;;4926190;29;20422;-65
2023/12/12 13:06:58;;;;;;;0.30;0.30;;;10.60;99.90;;;;;;4936432;29;20265;-67
2023/12/12 13:09:23;;;;;;;0.30;0.30;;;10.50;99.90;;;;;;4927679;29;20563;-67
2023/12/12 13:11:49;;;;;;;0.30;0.30;;;10.40;99.90;;;;;;4917439;29;20528;-67
2023/12/12 13:14:15;;;;;;;0.30;0.20;;;10.40;99.90;;;;;;4923227;29;20177;-67
2023/12/12 13:16:41;;;;;;;0.30;0.20;;;10.40;99.90;;;;;;4925504;29;20438;-67
2023/12/12 13:19:09;;;;;;;0.30;0.30;;;10.40;99.90;;;;;;4907680;29;20554;-69
2023/12/12 13:21:34;;;;;;;0.30;0.20;;;10.40;99.90;;;;;;4934890;29;20507;-68
2023/12/12 13:24:00;;;;;;;0.30;0.30;;;10.40;99.90;;;;;;4931779;29;20321;-68
2023/12/12 13:26:26;;;;;;;0.30;0.30;;;10.40;99.90;;;;;;4917630;29;20200;-69
2023/12/12 13:28:52;;;;;;;0.30;0.30;;;10.40;99.90;;;;;;4927121;29;20296;-69
2023/12/12 13:31:20;;;;;;;0.30;0.30;;;10.30;99.90;;;;;;4917168;29;20411;-67
2023/12/12 13:33:46;;;;;;;0.30;0.30;;;10.30;99.90;;;;;;4920047;29;20427;-67
2023/12/12 13:36:12;;;;;;;0.30;0.30;;;10.20;99.90;;;;;;4935916;29;20526;-71
2023/12/12 13:38:37;;;;;;;0.30;0.30;;;10.20;99.90;;;;;;4934452;29;20194;-68
2023/12/12 13:41:03;;;;;;;0.30;0.30;;;10.20;99.90;;;;;;4919131;29;20620;-68
2023/12/12 13:43:29;;;;;;;0.30;0.30;;;10.20;99.90;;;;;;4900619;29;20543;-69
2023/12/12 13:45:55;;;;;;;0.30;0.30;;;10.30;99.90;;;;;;4924010;29;20227;-68
2023/12/12 13:48:20;;;;;;;0.20;0.20;;;10.20;99.90;;;;;;4916991;29;20634;-67
2023/12/12 13:50:46;;;;;;;0.37;0.37;;;10.30;99.90;;;;;;4931241;29;20525;-67
2023/12/12 13:53:11;;;;;;;0.30;0.30;;;10.30;99.90;;;;;;4934460;29;20251;-63
2023/12/12 13:55:37;;;;;;;0.30;0.30;;;10.30;99.90;;;;;;4922830;29;20198;-64
2023/12/12 13:58:03;;;;;;;0.33;0.33;;;10.40;99.90;;;;;;4924375;29;20178;-61
2023/12/12 14:00:28;;;;;;;0.30;0.30;;;10.40;99.90;;;;;;4929426;29;20184;-64
2023/12/12 14:02:54;;;;;;;0.50;0.50;;;10.40;99.90;;;;;;4939636;29;20326;-65
2023/12/12 14:05:20;;;;;;;0.37;0.37;;;10.40;99.90;;;;;;4924653;29;20525;-61
2023/12/12 14:07:46;;;;;;;0.30;0.30;;;10.40;99.90;;;;;;4939288;29;20201;-64
2023/12/12 14:10:13;;;;;;;0.30;0.30;;;10.40;99.90;;;;;;4939508;29;20206;-63
2023/12/12 14:12:38;;;;;;;0.35;0.35;;;10.40;99.90;;;;;;4924415;29;20238;-65
2023/12/12 14:15:04;;;;;;;0.30;0.30;;;10.40;99.90;;;;;;4920001;29;20190;-63
2023/12/12 14:17:30;;;;;;;0.30;0.30;;;10.40;99.90;;;;;;4920336;29;20266;-64
2023/12/12 14:19:55;;;;;;;0.30;0.30;;;10.40;99.90;;;;;;4920220;29;20219;-61
2023/12/12 14:22:21;;;;;;;0.30;0.30;;;10.40;99.90;;;;;;4920585;29;20187;-63
2023/12/12 14:24:49;;;;;;;0.30;0.30;;;10.30;99.90;;;;;;4934577;29;20178;-62
2023/12/12 14:27:15;;;;;;;0.93;0.67;;;10.30;99.90;;;;;;4922230;29;20210;-64
2023/12/12 14:29:42;;;;;;;0.20;0.20;;;10.30;99.90;;;;;;4938999;29;20979;-63
2023/12/12 14:32:09;;;;;;;0.30;0.30;;;10.30;99.90;;;;;;4932013;29;20563;-61
2023/12/12 14:34:39;;;;;;;0.20;0.20;;;10.30;99.90;;;;;;4919636;29;20513;-65
2023/12/12 14:37:04;;;;;;;0.30;0.30;;;10.20;99.90;;;;;;4920053;29;20288;-64
2023/12/12 14:39:30;;;;;;;0.30;0.30;;;10.20;99.90;;;;;;4903065;29;20270;-64
2023/12/12 14:41:56;;;;;;;0.40;0.40;;;10.20;99.90;;;;;;4919574;29;20183;-64
2023/12/12 14:44:21;;;;;;;0.20;0.20;;;10.20;99.90;;;;;;4926416;29;20900;-64
2023/12/12 14:46:47;;;;;;;0.40;0.40;;;10.20;99.90;;;;;;4923340;29;20206;-62
2023/12/12 14:49:14;;;;;;;0.30;0.30;;;10.20;99.90;;;;;;4919481;29;20210;-63
2023/12/12 14:51:39;;;;;;;0.20;0.20;;;10.20;99.90;;;;;;4934312;29;20477;-64
2023/12/12 14:54:05;;;;;;;0.30;0.30;;;10.20;99.90;;;;;;4928546;29;20180;-64
2023/12/12 14:56:31;;;;;;;0.30;0.30;;;10.20;99.90;;;;;;4932710;29;20222;-62
2023/12/12 14:58:57;;;;;;;0.30;0.30;;;10.20;99.90;;;;;;4927925;29;20783;-66
2023/12/12 15:01:23;;;;;;;0.93;0.93;;;10.20;99.90;;;;;;4931076;29;20186;-62
2023/12/12 15:03:48;;;;;;;0.30;0.30;;;10.20;99.90;;;;;;4938848;29;20185;-63
2023/12/12 15:06:14;;;;;;;0.30;0.30;;;10.20;99.90;;;;;;4931386;29;20218;-62
2023/12/12 15:08:39;;;;;;;0.97;0.70;;;10.20;99.90;;;;;;4933019;29;20186;-63
2023/12/12 15:11:05;;;;;;;0.33;0.33;;;10.20;99.90;;;;;;4924572;29;20696;-64
2023/12/12 15:13:31;;;;;;;0.30;0.30;;;10.20;99.90;;;;;;4907623;29;20179;-66
2023/12/12 15:15:56;;;;;;;0.30;0.30;;;10.20;99.90;;;;;;4933850;29;20209;-64
2023/12/12 15:18:22;;;;;;;0.30;0.30;;;10.20;99.90;;;;;;4919295;29;20181;-65
2023/12/12 15:20:48;;;;;;;0.30;0.30;;;10.30;99.90;;;;;;4921086;29;20186;-65
2023/12/12 15:23:13;;;;;;;0.30;0.30;;;10.30;99.90;;;;;;4927416;29;20186;-64
2023/12/12 15:25:39;;;;;;;0.30;0.30;;;10.30;99.90;;;;;;4936274;29;20234;-64
2023/12/12 15:28:04;;;;;;;0.30;0.30;;;10.30;99.90;;;;;;4920180;29;20617;-66
2023/12/12 15:30:33;;;;;;;0.30;0.20;;;10.30;99.90;;;;;;4935900;29;20213;-64
2023/12/12 15:32:59;;;;;;;0.30;0.30;;;10.30;99.90;;;;;;4935886;29;20177;-62
2023/12/12 15:35:27;;;;;;;0.40;0.40;;;10.30;99.90;;;;;;4936806;29;20206;-64
2023/12/12 15:37:56;;;;;;;0.30;0.30;;;10.30;99.90;;;;;;4936065;29;20175;-63
2023/12/12 15:40:22;;;;;;;0.30;0.30;;;10.30;99.90;;;;;;4937930;29;20186;-64
2023/12/12 15:42:48;;;;;;;0.37;0.37;;;10.20;99.90;;;;;;4933831;29;20174;-62
2023/12/12 15:45:14;;;;;;;0.30;0.30;;;10.20;99.90;;;;;;4922152;29;20503;-67
2023/12/12 15:47:39;;;;;;;0.30;0.30;;;10.20;99.90;;;;;;4932515;29;20461;-66
2023/12/12 15:50:08;;;;;;;0.30;0.30;;;10.20;99.90;;;;;;4931855;29;20607;-64
2023/12/12 15:52:33;;;;;;;0.40;0.40;;;10.20;99.90;;;;;;4922401;29;20180;-64
2023/12/12 15:54:59;;;;;;;0.20;0.20;;;10.20;99.90;;;;;;4918444;29;20183;-65
2023/12/12 15:57:25;;;;;;;0.30;0.30;;;10.20;99.90;;;;;;4929129;29;20180;-63
2023/12/12 15:59:51;;;;;;;0.40;0.40;;;10.20;99.90;;;;;;4927478;29;20546;-63
2023/12/12 16:02:17;;;;;;;0.30;0.30;;;10.20;99.90;;;;;;4926830;29;20174;-64
2023/12/12 16:04:43;;;;;;;0.73;0.50;;;10.20;99.90;;;;;;4927822;29;20279;-62
2023/12/12 16:07:08;;;;;;;0.20;0.20;;;10.20;99.90;;;;;;4925816;29;20430;-65
2023/12/12 16:09:34;;;;;;;0.20;0.20;;;10.20;99.90;;;;;;4937401;29;20465;-63
2023/12/12 16:12:00;;;;;;;0.33;0.33;;;10.20;99.90;;;;;;4931191;29;20238;-63
2023/12/12 16:14:26;;;;;;;0.30;0.30;;;10.20;99.90;;;;;;4923040;29;20178;-62
2023/12/12 16:16:51;;;;;;;0.90;0.90;;;10.20;99.90;;;;;;4932980;29;20441;-63
2023/12/12 16:19:17;;;;;;;0.40;0.40;;;10.20;99.90;;;;;;4919312;29;20909;-64
2023/12/12 16:21:43;;;;;;;0.30;0.30;;;10.20;99.90;;;;;;4920101;29;20187;-63
2023/12/12 16:24:09;;;;;;;0.30;0.30;;;10.20;99.90;;;;;;4937049;29;20188;-65
2023/12/12 16:26:35;;;;;;;0.30;0.30;;;10.20;99.90;;;;;;4935382;29;20450;-62
2023/12/12 16:29:03;;;;;;;0.20;0.20;;;10.20;99.90;;;;;;4918300;29;20187;-65
2023/12/12 16:31:28;;;;;;;0.30;0.30;;;10.20;99.90;;;;;;4921991;29;20424;-65
2023/12/12 16:33:54;;;;;;;0.20;0.20;;;10.20;99.90;;;;;;4919663;29;20179;-63
2023/12/12 16:36:21;;;;;;;0.30;0.30;;;10.20;99.90;;;;;;4917988;29;20257;-63
2023/12/12 16:39:05;;;;;;;0.30;0.30;;;10.20;99.90;;;;;;4921135;29;20717;-65
2023/12/12 16:41:31;;;;;;;0.30;0.30;;;10.10;99.90;;;;;;4916019;29;20225;-62
2023/12/12 16:43:57;;;;;;;0.20;0.20;;;10.10;99.90;;;;;;4934324;29;20209;-63
2023/12/12 16:46:22;;;;;;;0.20;0.20;;;10.10;99.90;;;;;;4934185;29;20985;-64
2023/12/12 16:48:49;;;;;;;0.20;0.20;;;10.10;99.90;;;;;;4936837;29;20190;-64
2023/12/12 16:51:14;;;;;;;0.30;0.30;;;10.10;99.90;;;;;;4936960;29;20178;-64
2023/12/12 16:53:42;;;;;;;0.30;0.30;;;10.10;99.90;;;;;;4924254;29;20734;-64
2023/12/12 16:56:09;;;;;;;0.30;0.30;;;10.10;99.90;;;;;;4917356;29;20238;-64
2023/12/12 16:58:35;;;;;;;0.40;0.40;;;10.10;99.90;;;;;;4926650;29;20182;-64
2023/12/12 17:01:01;;;;;;;0.38;0.38;;;10.00;99.90;;;;;;4923393;29;20234;-64
2023/12/12 17:03:27;;;;;;;0.30;0.30;;;10.00;99.90;;;;;;4928825;29;20194;-63
2023/12/12 17:05:52;;;;;;;0.20;0.20;;;10.00;99.90;;;;;;4935945;29;20220;-64
2023/12/12 17:08:18;;;;;;;0.30;0.30;;;10.00;99.90;;;;;;4926004;29;20210;-64
2023/12/12 17:10:44;;;;;;;0.30;0.30;;;10.10;99.90;;;;;;4917554;29;20205;-64
2023/12/12 17:13:09;;;;;;;0.30;0.30;;;10.20;99.90;;;;;;4925970;29;20231;-64
2023/12/12 17:15:35;;;;;;;0.40;0.40;;;10.20;99.90;;;;;;4934464;29;20670;-64
2023/12/12 17:18:02;;;;;;;0.30;0.30;;;10.20;99.90;;;;;;4931049;29;20175;-62
2023/12/12 17:20:27;;;;;;;0.20;0.20;;;10.20;99.90;;;;;;4922260;29;20183;-65
2023/12/12 17:22:53;;;;;;;0.30;0.30;;;10.20;99.90;;;;;;4918755;29;20540;-65
2023/12/12 17:25:19;;;;;;;0.30;0.30;;;10.20;99.90;;;;;;4900820;29;20204;-65
2023/12/12 17:27:45;;;;;;;0.20;0.20;;;10.20;99.90;;;;;;4898940;29;20195;-63
2023/12/12 17:30:12;;;;;;;0.30;0.30;;;10.10;99.90;;;;;;4921650;29;20229;-66
2023/12/12 17:32:38;;;;;;;0.30;0.30;;;10.20;99.90;;;;;;4929638;29;20182;-65
2023/12/12 17:35:05;;;;;;;0.27;0.27;;;10.10;99.90;;;;;;4916763;29;20204;-63
2023/12/12 17:37:33;;;;;;;0.30;0.30;;;10.20;99.90;;;;;;4918331;29;20410;-65
2023/12/12 17:39:59;;;;;;;0.30;0.30;;;10.30;99.90;;;;;;4929565;29;20182;-64
2023/12/12 17:42:25;;;;;;;0.30;0.30;;;10.30;99.90;;;;;;4934213;29;21741;-65
2023/12/12 17:44:51;;;;;;;0.40;0.40;;;10.30;99.90;;;;;;4933392;29;20237;-64
2023/12/12 17:47:17;;;;;;;0.30;0.30;;;10.40;99.90;;;;;;4919394;29;20297;-67
2023/12/12 17:49:42;;;;;;;0.20;0.20;;;10.40;99.90;;;;;;4897879;29;20305;-64
2023/12/12 17:52:08;;;;;;;0.37;0.37;;;10.40;99.90;;;;;;4898164;29;20175;-66
2023/12/12 17:54:34;;;;;;;0.30;0.30;;;10.40;99.90;;;;;;4920008;29;20183;-67
2023/12/12 17:56:59;;;;;;;0.30;0.30;;;10.40;99.90;;;;;;4917024;29;20198;-65